Time;durP1;ratioP1;P1;durP2;ratioP2;P2;SDS_P1;SDS_P2;PMS_P1;PMS_P2;Temp;Humidity;BMP_temperature;BMP_pressure;BME280_temperature;BME280_humidity;BME280_pressure;Samples;Min_cycle;Max_cycle;Signal;HPM_P1;HPM_P2
2022/12/12 00:01:03;;;;;;;;;;;;;;;;;;6180375;23;19912;-72
2022/12/12 00:03:28;;;;;;;;;;;;;;;;;;6181336;23;19955;-72
2022/12/12 00:05:54;;;;;;;;;;;;;;;;;;6180807;23;20310;-72
2022/12/12 00:08:20;;;;;;;;;;;;;;;;;;6181552;23;20035;-72
2022/12/12 00:10:46;;;;;;;;;;;;;;;;;;6180760;23;19908;-72
2022/12/12 00:13:12;;;;;;;;;;;;;;;;;;6154372;23;20270;-72
2022/12/12 00:15:38;;;;;;;;;;;;;;;;;;6180964;23;19911;-72
2022/12/12 00:18:04;;;;;;;;;;;;;;;;;;6181056;23;20326;-72
2022/12/12 00:20:29;;;;;;;;;;;;;;;;;;6181325;23;19905;-72
2022/12/12 00:22:55;;;;;;;;;;;;;;;;;;6154443;23;19905;-72
2022/12/12 00:25:21;;;;;;;;;;;;;;;;;;6182583;23;19908;-72
2022/12/12 00:27:47;;;;;;;;;;;;;;;;;;6182288;23;19954;-72
2022/12/12 00:30:13;;;;;;;;;;;;;;;;;;6183034;23;20285;-72
2022/12/12 00:32:39;;;;;;;;;;;;;;;;;;6182565;23;19928;-72
2022/12/12 00:35:05;;;;;;;;;;;;;;;;;;6183019;23;19978;-72
2022/12/12 00:37:31;;;;;;;;;;;;;;;;;;6183118;23;19908;-72
2022/12/12 00:39:56;;;;;;;;;;;;;;;;;;6182213;23;20286;-73
2022/12/12 00:42:22;;;;;;;;;;;;;;;;;;6182245;23;19905;-72
2022/12/12 00:44:48;;;;;;;;;;;;;;;;;;6182377;23;19955;-72
2022/12/12 00:47:14;;;;;;;;;;;;;;;;;;6182768;23;19982;-72
2022/12/12 00:49:40;;;;;;;;;;;;;;;;;;6182574;23;19983;-73
2022/12/12 00:52:06;;;;;;;;;;;;;;;;;;6182924;23;20302;-72
2022/12/12 00:54:32;;;;;;;;;;;;;;;;;;6182809;23;19905;-72
2022/12/12 00:56:58;;;;;;;;;;;;;;;;;;6182049;23;19908;-72
2022/12/12 00:59:23;;;;;;;;;;;;;;;;;;6182829;23;19908;-72
2022/12/12 01:01:49;;;;;;;;;;;;;;;;;;6182596;23;19927;-72
2022/12/12 01:04:15;;;;;;;;;;;;;;;;;;6182314;23;19931;-72
2022/12/12 01:06:41;;;;;;;;;;;;;;;;;;6182383;23;20331;-72
2022/12/12 01:09:07;;;;;;;;;;;;;;;;;;6182528;23;19908;-72
2022/12/12 01:11:33;;;;;;;;;;;;;;;;;;6182241;23;19911;-72
2022/12/12 01:13:59;;;;;;;;;;;;;;;;;;6182090;23;19912;-72
2022/12/12 01:16:24;;;;;;;;;;;;;;;;;;6182929;23;19935;-72
2022/12/12 01:18:50;;;;;;;;;;;;;;;;;;6155397;23;19995;-72
2022/12/12 01:21:16;;;;;;;;;;;;;;;;;;6182619;23;20472;-72
2022/12/12 01:23:42;;;;;;;;;;;;;;;;;;6182379;23;19904;-72
2022/12/12 01:26:08;;;;;;;;;;;;;;;;;;6181768;23;19991;-73
2022/12/12 01:28:34;;;;;;;;;;;;;;;;;;6182779;23;19908;-73
2022/12/12 01:31:00;;;;;;;;;;;;;;;;;;6182135;23;20235;-72
2022/12/12 01:33:26;;;;;;;;;;;;;;;;;;6182965;23;19908;-73
2022/12/12 01:35:52;;;;;;;;;;;;;;;;;;6181963;23;19911;-72
2022/12/12 01:38:18;;;;;;;;;;;;;;;;;;6182639;23;19904;-72
2022/12/12 01:40:44;;;;;;;;;;;;;;;;;;6181405;23;19915;-72
2022/12/12 01:43:10;;;;;;;;;;;;;;;;;;6182126;23;19931;-72
2022/12/12 01:45:35;;;;;;;;;;;;;;;;;;6182537;23;19987;-72
2022/12/12 01:48:01;;;;;;;;;;;;;;;;;;6181910;23;20322;-72
2022/12/12 01:50:27;;;;;;;;;;;;;;;;;;6182663;23;19908;-73
2022/12/12 01:52:53;;;;;;;;;;;;;;;;;;6181874;23;19912;-72
2022/12/12 01:55:19;;;;;;;;;;;;;;;;;;6181919;23;20074;-72
2022/12/12 01:57:45;;;;;;;;;;;;;;;;;;6182052;23;19904;-72
2022/12/12 02:00:11;;;;;;;;;;;;;;;;;;6155848;23;19928;-72
2022/12/12 02:02:37;;;;;;;;;;;;;;;;;;6182516;23;19927;-72
2022/12/12 02:05:03;;;;;;;;;;;;;;;;;;6182447;23;20314;-73
2022/12/12 02:07:29;;;;;;;;;;;;;;;;;;6182463;23;19931;-73
2022/12/12 02:09:55;;;;;;;;;;;;;;;;;;6154852;23;20337;-73
2022/12/12 02:14:52;;;;;;;;;;;;;;;;;;6242961;22;20329;-69
2022/12/12 02:17:18;;;;;;;;;;;;;;;;;;6243943;23;19904;-69
2022/12/12 02:19:43;;;;;;;;;;;;;;;;;;6243673;23;19908;-69
2022/12/12 02:22:09;;;;;;;;;;;;;;;;;;6243793;23;19903;-71
2022/12/12 02:24:35;;;;;;;;;;;;;;;;;;6243949;23;19918;-69
2022/12/12 02:27:02;;;;;;;;;;;;;;;;;;6241949;23;19912;-69
2022/12/12 02:29:28;;;;;;;;;;;;;;;;;;6244087;23;19910;-68
2022/12/12 02:31:54;;;;;;;;;;;;;;;;;;6243352;23;19907;-68
2022/12/12 02:34:20;;;;;;;;;;;;;;;;;;6243977;23;19903;-68
2022/12/12 02:36:46;;;;;;;;;;;;;;;;;;6243499;23;20356;-68
2022/12/12 02:39:12;;;;;;;;;;;;;;;;;;6243816;23;20378;-68
2022/12/12 02:41:38;;;;;;;;;;;;;;;;;;6242921;23;19903;-68
2022/12/12 02:44:04;;;;;;;;;;;;;;;;;;6243488;22;19914;-68
2022/12/12 02:46:30;;;;;;;;;;;;;;;;;;6243377;23;19912;-68
2022/12/12 02:48:55;;;;;;;;;;;;;;;;;;6242120;23;19904;-68
2022/12/12 02:51:21;;;;;;;;;;;;;;;;;;6243541;23;19903;-68
2022/12/12 02:53:47;;;;;;;;;;;;;;;;;;6243247;23;20335;-68
2022/12/12 02:56:14;;;;;;;;;;;;;;;;;;6242584;23;19903;-69
2022/12/12 02:58:40;;;;;;;;;;;;;;;;;;6243052;23;20327;-68
2022/12/12 03:01:10;;;;;;;;;;;;;;;;;;6242788;22;19908;-68
2022/12/12 03:09:05;;;;;;;;;;;;;;;;;;6240397;23;19911;-68
2022/12/12 03:11:31;;;;;;;;;;;;;;;;;;6240428;23;19927;-68
2022/12/12 03:13:57;;;;;;;;;;;;;;;;;;6240277;22;19915;-68
2022/12/12 03:16:22;;;;;;;;;;;;;;;;;;6241078;23;19986;-69
2022/12/12 03:18:48;;;;;;;;;;;;;;;;;;6241034;23;19904;-68
2022/12/12 03:21:14;;;;;;;;;;;;;;;;;;6243059;23;19986;-68
2022/12/12 03:23:40;;;;;;;;;;;;;;;;;;6243269;22;19903;-68
2022/12/12 03:26:06;;;;;;;;;;;;;;;;;;6242351;23;19911;-68
2022/12/12 03:28:32;;;;;;;;;;;;;;;;;;6243215;22;19911;-68
2022/12/12 03:30:58;;;;;;;;;;;;;;;;;;6242764;23;19986;-68
2022/12/12 03:33:24;;;;;;;;;;;;;;;;;;6243356;23;20312;-68
2022/12/12 03:35:50;;;;;;;;;;;;;;;;;;6243187;22;19953;-68
2022/12/12 03:38:16;;;;;;;;;;;;;;;;;;6243085;23;19903;-68
2022/12/12 03:40:42;;;;;;;;;;;;;;;;;;6242279;22;19911;-68
2022/12/12 03:43:08;;;;;;;;;;;;;;;;;;6243037;23;20360;-67
2022/12/12 03:45:34;;;;;;;;;;;;;;;;;;6243414;22;19919;-68
2022/12/12 03:47:59;;;;;;;;;;;;;;;;;;6242687;23;19939;-68
2022/12/12 03:50:25;;;;;;;;;;;;;;;;;;6243028;23;19911;-68
2022/12/12 03:52:51;;;;;;;;;;;;;;;;;;6242582;23;20264;-68
2022/12/12 03:55:18;;;;;;;;;;;;;;;;;;6242468;22;19911;-68
2022/12/12 03:57:44;;;;;;;;;;;;;;;;;;6243364;23;19914;-70
2022/12/12 04:00:12;;;;;;;;;;;;;;;;;;6245346;23;19927;-68
2022/12/12 04:02:38;;;;;;;;;;;;;;;;;;6245161;23;19904;-68
2022/12/12 04:05:04;;;;;;;;;;;;;;;;;;6244993;23;19918;-67
2022/12/12 04:07:30;;;;;;;;;;;;;;;;;;6245314;23;20193;-68
2022/12/12 04:12:58;;;;;;;;;;;;;;;;;;6244525;22;19910;-71
2022/12/12 04:15:24;;;;;;;;;;;;;;;;;;6245554;23;19926;-70
2022/12/12 04:17:50;;;;;;;;;;;;;;;;;;6244643;23;20309;-70
2022/12/12 04:23:16;;;;;;;;;;;;;;;;;;6243964;23;20390;-70
2022/12/12 04:26:37;;;;;;;;;;;;;;;;;;6244653;23;19994;-70
2022/12/12 04:28:27;;;;;;;;;;;;;;;;;;6244842;22;19903;-70
2022/12/12 04:30:53;;;;;;;;;;;;;;;;;;6243541;23;19908;-70
2022/12/12 04:33:19;;;;;;;;;;;;;;;;;;6244779;23;20359;-71
2022/12/12 04:35:45;;;;;;;;;;;;;;;;;;6244641;23;19931;-70
2022/12/12 04:38:11;;;;;;;;;;;;;;;;;;6217167;23;19908;-71
2022/12/12 04:40:37;;;;;;;;;;;;;;;;;;6245155;23;19908;-70
2022/12/12 04:43:03;;;;;;;;;;;;;;;;;;6244345;23;19911;-70
2022/12/12 04:45:28;;;;;;;;;;;;;;;;;;6244868;23;20399;-70
2022/12/12 04:47:54;;;;;;;;;;;;;;;;;;6243991;23;19911;-70
2022/12/12 04:50:20;;;;;;;;;;;;;;;;;;6244954;23;19908;-70
2022/12/12 04:52:46;;;;;;;;;;;;;;;;;;6243858;23;20324;-70
2022/12/12 04:55:12;;;;;;;;;;;;;;;;;;6244388;23;19938;-69
2022/12/12 04:57:38;;;;;;;;;;;;;;;;;;6244262;23;19908;-69
2022/12/12 05:00:04;;;;;;;;;;;;;;;;;;6244575;22;19908;-68
2022/12/12 05:02:30;;;;;;;;;;;;;;;;;;6244482;23;19986;-69
2022/12/12 05:04:56;;;;;;;;;;;;;;;;;;6243947;23;19915;-69
2022/12/12 05:07:22;;;;;;;;;;;;;;;;;;6243849;23;20313;-69
2022/12/12 05:09:48;;;;;;;;;;;;;;;;;;6243565;22;20062;-69
2022/12/12 05:12:13;;;;;;;;;;;;;;;;;;6217521;23;19911;-69
2022/12/12 05:14:39;;;;;;;;;;;;;;;;;;6244031;23;19923;-69
2022/12/12 05:17:05;;;;;;;;;;;;;;;;;;6244416;23;19903;-68
2022/12/12 05:19:31;;;;;;;;;;;;;;;;;;6244418;23;19904;-68
2022/12/12 05:21:57;;;;;;;;;;;;;;;;;;6243249;23;19912;-68
2022/12/12 05:24:29;;;;;;;;;;;;;;;;;;6244336;23;19957;-69
2022/12/12 05:26:55;;;;;;;;;;;;;;;;;;6243644;23;19915;-69
2022/12/12 05:29:21;;;;;;;;;;;;;;;;;;6244300;23;19907;-68
2022/12/12 05:31:47;;;;;;;;;;;;;;;;;;6243362;22;20240;-70
2022/12/12 05:34:13;;;;;;;;;;;;;;;;;;6242032;23;20432;-69
2022/12/12 05:36:38;;;;;;;;;;;;;;;;;;6242633;23;19910;-68
2022/12/12 05:39:04;;;;;;;;;;;;;;;;;;6243827;23;20313;-69
2022/12/12 05:41:30;;;;;;;;;;;;;;;;;;6244245;23;19946;-68
2022/12/12 05:43:56;;;;;;;;;;;;;;;;;;6243611;23;19903;-69
2022/12/12 05:46:22;;;;;;;;;;;;;;;;;;6244096;23;19908;-69
2022/12/12 05:48:49;;;;;;;;;;;;;;;;;;6243682;23;19911;-69
2022/12/12 05:51:15;;;;;;;;;;;;;;;;;;6243333;22;19960;-69
2022/12/12 05:53:41;;;;;;;;;;;;;;;;;;6243662;23;19986;-69
2022/12/12 05:56:10;;;;;;;;;;;;;;;;;;6243988;23;19904;-69
2022/12/12 05:58:35;;;;;;;;;;;;;;;;;;6243957;22;19986;-71
2022/12/12 06:01:01;;;;;;;;;;;;;;;;;;6243577;22;19904;-70
2022/12/12 06:03:27;;;;;;;;;;;;;;;;;;6243985;23;19911;-70
2022/12/12 06:05:53;;;;;;;;;;;;;;;;;;6242840;23;19908;-70
2022/12/12 06:08:19;;;;;;;;;;;;;;;;;;6243960;23;19977;-70
2022/12/12 06:10:45;;;;;;;;;;;;;;;;;;6243732;23;20559;-70
2022/12/12 06:13:11;;;;;;;;;;;;;;;;;;6243362;23;19969;-70
2022/12/12 06:15:37;;;;;;;;;;;;;;;;;;6243749;23;19974;-70
2022/12/12 06:18:03;;;;;;;;;;;;;;;;;;6243221;23;19903;-70
2022/12/12 06:20:29;;;;;;;;;;;;;;;;;;6243258;23;20571;-70
2022/12/12 06:22:55;;;;;;;;;;;;;;;;;;6243057;23;19942;-70
2022/12/12 06:25:21;;;;;;;;;;;;;;;;;;6243606;23;19903;-70
2022/12/12 06:27:47;;;;;;;;;;;;;;;;;;6243440;23;20371;-70
2022/12/12 06:30:13;;;;;;;;;;;;;;;;;;6243529;22;19904;-70
2022/12/12 06:32:38;;;;;;;;;;;;;;;;;;6243440;23;19931;-70
2022/12/12 06:35:04;;;;;;;;;;;;;;;;;;6243138;23;19909;-70
2022/12/12 06:37:30;;;;;;;;;;;;;;;;;;6243741;23;19987;-69
2022/12/12 06:39:56;;;;;;;;;;;;;;;;;;6243041;23;19919;-70
2022/12/12 06:42:22;;;;;;;;;;;;;;;;;;6243651;23;19907;-70
2022/12/12 06:44:48;;;;;;;;;;;;;;;;;;6243539;23;19958;-70
2022/12/12 06:47:14;;;;;;;;;;;;;;;;;;6243359;23;19915;-70
2022/12/12 06:49:39;;;;;;;;;;;;;;;;;;6242777;23;20317;-69
2022/12/12 06:52:05;;;;;;;;;;;;;;;;;;6243109;23;19903;-69
2022/12/12 06:54:31;;;;;;;;;;;;;;;;;;6243422;23;20312;-69
2022/12/12 06:56:57;;;;;;;;;;;;;;;;;;6242730;22;19903;-69
2022/12/12 06:59:23;;;;;;;;;;;;;;;;;;6243523;23;19908;-69
2022/12/12 07:01:49;;;;;;;;;;;;;;;;;;6243246;23;19908;-69
2022/12/12 07:04:15;;;;;;;;;;;;;;;;;;6242862;23;19931;-69
2022/12/12 07:06:41;;;;;;;;;;;;;;;;;;6242989;23;19916;-68
2022/12/12 07:09:07;;;;;;;;;;;;;;;;;;6243256;23;20232;-68
2022/12/12 07:11:33;;;;;;;;;;;;;;;;;;6243136;22;19954;-69
2022/12/12 07:14:00;;;;;;;;;;;;;;;;;;6242493;22;19915;-69
2022/12/12 07:16:26;;;;;;;;;;;;;;;;;;6243182;23;19930;-69
2022/12/12 07:18:52;;;;;;;;;;;;;;;;;;6242480;22;19903;-69
2022/12/12 07:21:17;;;;;;;;;;;;;;;;;;6216495;23;19904;-69
2022/12/12 07:23:43;;;;;;;;;;;;;;;;;;6243017;23;19908;-68
2022/12/12 07:26:09;;;;;;;;;;;;;;;;;;6242812;23;19912;-69
2022/12/12 07:28:37;;;;;;;;;;;;;;;;;;6243100;23;19930;-69
2022/12/12 07:31:02;;;;;;;;;;;;;;;;;;6242751;23;19954;-69
2022/12/12 07:33:28;;;;;;;;;;;;;;;;;;6242249;23;20276;-69
2022/12/12 07:35:54;;;;;;;;;;;;;;;;;;6242325;23;19915;-69
2022/12/12 07:38:20;;;;;;;;;;;;;;;;;;6243060;23;19903;-69
2022/12/12 07:40:46;;;;;;;;;;;;;;;;;;6242531;23;19960;-69
2022/12/12 07:43:12;;;;;;;;;;;;;;;;;;6242774;22;19904;-69
2022/12/12 07:45:38;;;;;;;;;;;;;;;;;;6242717;23;19912;-69
2022/12/12 07:48:03;;;;;;;;;;;;;;;;;;6242235;22;19908;-69
2022/12/12 07:50:29;;;;;;;;;;;;;;;;;;6216247;23;20399;-69
2022/12/12 07:52:55;;;;;;;;;;;;;;;;;;6242517;23;19903;-69
2022/12/12 07:55:21;;;;;;;;;;;;;;;;;;6242838;23;19904;-69
2022/12/12 07:57:47;;;;;;;;;;;;;;;;;;6242789;23;19904;-69
2022/12/12 08:00:13;;;;;;;;;;;;;;;;;;6242360;23;19910;-69
2022/12/12 08:02:39;;;;;;;;;;;;;;;;;;6241564;23;19908;-69
2022/12/12 08:05:05;;;;;;;;;;;;;;;;;;6242251;23;19978;-69
2022/12/12 08:07:31;;;;;;;;;;;;;;;;;;6238638;23;19990;-69
2022/12/12 08:09:57;;;;;;;;;;;;;;;;;;6241298;23;19911;-69
2022/12/12 08:12:23;;;;;;;;;;;;;;;;;;6242019;22;20502;-69
2022/12/12 08:14:48;;;;;;;;;;;;;;;;;;6239395;23;19994;-69
2022/12/12 08:17:14;;;;;;;;;;;;;;;;;;6242157;23;19903;-69
2022/12/12 08:19:40;;;;;;;;;;;;;;;;;;6241716;23;20335;-69
2022/12/12 08:22:07;;;;;;;;;;;;;;;;;;6242279;23;19907;-69
2022/12/12 08:24:33;;;;;;;;;;;;;;;;;;6241780;23;20198;-70
2022/12/12 08:26:59;;;;;;;;;;;;;;;;;;6240303;23;19923;-69
2022/12/12 08:29:24;;;;;;;;;;;;;;;;;;6241760;23;19943;-69
2022/12/12 08:31:50;;;;;;;;;;;;;;;;;;6241963;23;19910;-69
2022/12/12 08:34:16;;;;;;;;;;;;;;;;;;6241381;23;20378;-69
2022/12/12 08:36:42;;;;;;;;;;;;;;;;;;6241201;23;19911;-68
2022/12/12 08:39:08;;;;;;;;;;;;;;;;;;6241740;22;19904;-69
2022/12/12 08:41:34;;;;;;;;;;;;;;;;;;6242841;23;19935;-69
2022/12/12 08:44:00;;;;;;;;;;;;;;;;;;6240085;23;19903;-69
2022/12/12 08:46:26;;;;;;;;;;;;;;;;;;6243954;22;19918;-69
2022/12/12 08:48:52;;;;;;;;;;;;;;;;;;6242053;23;19979;-69
2022/12/12 08:51:18;;;;;;;;;;;;;;;;;;6243172;23;19904;-69
2022/12/12 08:53:44;;;;;;;;;;;;;;;;;;6241723;23;20225;-68
2022/12/12 08:56:10;;;;;;;;;;;;;;;;;;6243386;23;19934;-68
2022/12/12 08:58:36;;;;;;;;;;;;;;;;;;6242321;23;20452;-68
2022/12/12 09:01:02;;;;;;;;;;;;;;;;;;6242985;22;20037;-68
2022/12/12 09:03:28;;;;;;;;;;;;;;;;;;6242953;23;20288;-68
2022/12/12 09:05:54;;;;;;;;;;;;;;;;;;6243390;23;20001;-68
2022/12/12 09:08:20;;;;;;;;;;;;;;;;;;6242905;23;19904;-68
2022/12/12 09:10:46;;;;;;;;;;;;;;;;;;6243008;22;19903;-68
2022/12/12 09:13:12;;;;;;;;;;;;;;;;;;6241739;23;19947;-68
2022/12/12 09:15:38;;;;;;;;;;;;;;;;;;6243871;23;20343;-68
2022/12/12 09:18:04;;;;;;;;;;;;;;;;;;6243830;23;19908;-68
2022/12/12 09:20:29;;;;;;;;;;;;;;;;;;6242645;23;19927;-69
2022/12/12 09:22:55;;;;;;;;;;;;;;;;;;6242385;23;19950;-69
2022/12/12 09:25:21;;;;;;;;;;;;;;;;;;6243719;23;20370;-69
2022/12/12 09:27:47;;;;;;;;;;;;;;;;;;6242595;23;19949;-69
2022/12/12 09:30:13;;;;;;;;;;;;;;;;;;6242650;23;20276;-69
2022/12/12 09:32:39;;;;;;;;;;;;;;;;;;6241638;23;19910;-69
2022/12/12 09:35:05;;;;;;;;;;;;;;;;;;6243573;22;19907;-69
2022/12/12 09:37:30;;;;;;;;;;;;;;;;;;6243687;23;19930;-68
2022/12/12 09:39:56;;;;;;;;;;;;;;;;;;6242896;22;19907;-69
2022/12/12 09:42:22;;;;;;;;;;;;;;;;;;6241754;23;20308;-69
2022/12/12 09:44:49;;;;;;;;;;;;;;;;;;6241845;23;19911;-69
2022/12/12 09:47:14;;;;;;;;;;;;;;;;;;6243503;23;20325;-69
2022/12/12 09:49:40;;;;;;;;;;;;;;;;;;6243511;22;19915;-69
2022/12/12 09:52:06;;;;;;;;;;;;;;;;;;6242583;23;19914;-68
2022/12/12 09:54:32;;;;;;;;;;;;;;;;;;6241889;23;19982;-69
2022/12/12 09:56:58;;;;;;;;;;;;;;;;;;6242055;23;19908;-69
2022/12/12 09:59:24;;;;;;;;;;;;;;;;;;6243373;23;19957;-69
2022/12/12 10:01:50;;;;;;;;;;;;;;;;;;6242270;23;20593;-68
2022/12/12 10:04:16;;;;;;;;;;;;;;;;;;6240612;23;19915;-69
2022/12/12 10:06:42;;;;;;;;;;;;;;;;;;6215724;23;19911;-68
2022/12/12 10:09:07;;;;;;;;;;;;;;;;;;6243148;23;19911;-68
2022/12/12 10:11:49;;;;;;;;;;;;;;;;;;6242963;23;19908;-68
2022/12/12 10:14:14;;;;;;;;;;;;;;;;;;6240424;23;19974;-68
2022/12/12 10:16:40;;;;;;;;;;;;;;;;;;6242550;23;19911;-69
2022/12/12 10:19:07;;;;;;;;;;;;;;;;;;6243174;23;20228;-68
2022/12/12 10:21:33;;;;;;;;;;;;;;;;;;6243643;23;19904;-69
2022/12/12 10:23:58;;;;;;;;;;;;;;;;;;6242001;23;19911;-68
2022/12/12 10:26:24;;;;;;;;;;;;;;;;;;6241020;23;20006;-68
2022/12/12 10:28:50;;;;;;;;;;;;;;;;;;6242962;23;19904;-68
2022/12/12 10:31:16;;;;;;;;;;;;;;;;;;6243315;22;19904;-68
2022/12/12 10:33:42;;;;;;;;;;;;;;;;;;6241855;23;19973;-68
2022/12/12 10:36:08;;;;;;;;;;;;;;;;;;6241503;23;19986;-68
2022/12/12 10:38:34;;;;;;;;;;;;;;;;;;6243023;22;19915;-68
2022/12/12 10:41:00;;;;;;;;;;;;;;;;;;6214928;23;19911;-68
2022/12/12 10:43:26;;;;;;;;;;;;;;;;;;6242095;23;19915;-68
2022/12/12 10:45:51;;;;;;;;;;;;;;;;;;6242086;23;19919;-68
2022/12/12 10:48:17;;;;;;;;;;;;;;;;;;6241607;23;19927;-68
2022/12/12 10:50:43;;;;;;;;;;;;;;;;;;6242534;23;20317;-68
2022/12/12 10:53:09;;;;;;;;;;;;;;;;;;6241556;23;19912;-68
2022/12/12 10:55:35;;;;;;;;;;;;;;;;;;6242390;23;19975;-68
2022/12/12 10:58:02;;;;;;;;;;;;;;;;;;6241112;23;20045;-68
2022/12/12 11:00:28;;;;;;;;;;;;;;;;;;6243278;23;19903;-68
2022/12/12 11:02:54;;;;;;;;;;;;;;;;;;6241587;22;19912;-68
2022/12/12 11:05:20;;;;;;;;;;;;;;;;;;6242966;23;19953;-68
2022/12/12 11:07:46;;;;;;;;;;;;;;;;;;6242379;23;19927;-68
2022/12/12 11:10:12;;;;;;;;;;;;;;;;;;6240680;23;19911;-68
2022/12/12 11:12:38;;;;;;;;;;;;;;;;;;6241563;23;19904;-68
2022/12/12 11:15:04;;;;;;;;;;;;;;;;;;6242884;23;19982;-68
2022/12/12 11:17:30;;;;;;;;;;;;;;;;;;6242938;23;19939;-68
2022/12/12 11:19:55;;;;;;;;;;;;;;;;;;6240656;23;19904;-68
2022/12/12 11:22:21;;;;;;;;;;;;;;;;;;6242823;23;19910;-69
2022/12/12 11:24:47;;;;;;;;;;;;;;;;;;6240779;23;19908;-68
2022/12/12 11:27:13;;;;;;;;;;;;;;;;;;6242434;23;20282;-68
2022/12/12 11:29:39;;;;;;;;;;;;;;;;;;6242412;23;19995;-68
2022/12/12 11:32:05;;;;;;;;;;;;;;;;;;6241159;23;19910;-68
2022/12/12 11:34:31;;;;;;;;;;;;;;;;;;6241437;23;20256;-68
2022/12/12 11:36:56;;;;;;;;;;;;;;;;;;6240534;23;19907;-68
2022/12/12 11:39:22;;;;;;;;;;;;;;;;;;6240162;23;19911;-68
2022/12/12 11:41:48;;;;;;;;;;;;;;;;;;6240051;23;20325;-69
2022/12/12 11:44:14;;;;;;;;;;;;;;;;;;6240331;23;19907;-69
2022/12/12 11:46:40;;;;;;;;;;;;;;;;;;6242173;23;19912;-69
2022/12/12 11:49:06;;;;;;;;;;;;;;;;;;6215547;23;20309;-69
2022/12/12 11:51:32;;;;;;;;;;;;;;;;;;6241745;23;19904;-69
2022/12/12 11:53:58;;;;;;;;;;;;;;;;;;6211800;23;19907;-68
2022/12/12 11:56:23;;;;;;;;;;;;;;;;;;6242090;23;20319;-68
2022/12/12 11:58:49;;;;;;;;;;;;;;;;;;6241364;23;19975;-68
2022/12/12 12:01:15;;;;;;;;;;;;;;;;;;6242225;23;19912;-68
2022/12/12 12:03:41;;;;;;;;;;;;;;;;;;6239402;23;19907;-68
2022/12/12 12:06:07;;;;;;;;;;;;;;;;;;6242437;23;19914;-68
2022/12/12 12:08:34;;;;;;;;;;;;;;;;;;6241643;23;19904;-68
2022/12/12 12:11:00;;;;;;;;;;;;;;;;;;6242338;23;20217;-68
2022/12/12 12:13:25;;;;;;;;;;;;;;;;;;6241425;22;19925;-68
2022/12/12 12:15:51;;;;;;;;;;;;;;;;;;6241808;23;19904;-69
2022/12/12 12:18:17;;;;;;;;;;;;;;;;;;6242702;23;19903;-67
2022/12/12 12:20:43;;;;;;;;;;;;;;;;;;6244420;22;19903;-68
2022/12/12 12:23:09;;;;;;;;;;;;;;;;;;6243872;23;20033;-70
2022/12/12 12:25:35;;;;;;;;;;;;;;;;;;6244844;23;19915;-68
2022/12/12 12:28:01;;;;;;;;;;;;;;;;;;6244261;23;19907;-68
2022/12/12 12:30:27;;;;;;;;;;;;;;;;;;6244796;23;19904;-69
2022/12/12 12:32:53;;;;;;;;;;;;;;;;;;6244162;23;20392;-69
2022/12/12 12:35:19;;;;;;;;;;;;;;;;;;6244480;23;19907;-68
2022/12/12 12:37:45;;;;;;;;;;;;;;;;;;6215424;23;20285;-69
2022/12/12 12:40:10;;;;;;;;;;;;;;;;;;6244210;22;19914;-69
2022/12/12 12:42:36;;;;;;;;;;;;;;;;;;6243963;23;19931;-68
2022/12/12 12:45:02;;;;;;;;;;;;;;;;;;6244320;23;20301;-69
2022/12/12 12:47:28;;;;;;;;;;;;;;;;;;6244249;23;19914;-68
2022/12/12 12:49:54;;;;;;;;;;;;;;;;;;6243463;23;19982;-68
2022/12/12 12:52:20;;;;;;;;;;;;;;;;;;6243913;23;19908;-68
2022/12/12 12:54:46;;;;;;;;;;;;;;;;;;6242758;23;19903;-68
2022/12/12 12:57:12;;;;;;;;;;;;;;;;;;6244269;23;19990;-68
2022/12/12 12:59:38;;;;;;;;;;;;;;;;;;6244261;23;20313;-68
2022/12/12 13:02:03;;;;;;;;;;;;;;;;;;6244088;23;19965;-67
2022/12/12 13:04:30;;;;;;;;;;;;;;;;;;6244201;22;19903;-68
2022/12/12 13:06:55;;;;;;;;;;;;;;;;;;6243356;23;19962;-67
2022/12/12 13:09:21;;;;;;;;;;;;;;;;;;6244521;22;19911;-68
2022/12/12 13:11:47;;;;;;;;;;;;;;;;;;6243611;23;19949;-69
2022/12/12 13:14:13;;;;;;;;;;;;;;;;;;6216859;23;19912;-68
2022/12/12 13:16:39;;;;;;;;;;;;;;;;;;6243617;23;19942;-68
2022/12/12 13:19:05;;;;;;;;;;;;;;;;;;6244322;23;20309;-68
2022/12/12 13:21:31;;;;;;;;;;;;;;;;;;6243740;23;19915;-68
2022/12/12 13:23:56;;;;;;;;;;;;;;;;;;6243717;23;20288;-68
2022/12/12 13:26:22;;;;;;;;;;;;;;;;;;6244242;23;19911;-68
2022/12/12 13:28:49;;;;;;;;;;;;;;;;;;6244223;23;19910;-67
2022/12/12 13:31:14;;;;;;;;;;;;;;;;;;6243256;23;19908;-67
2022/12/12 13:33:42;;;;;;;;;;;;;;;;;;6242817;23;21247;-68
2022/12/12 13:36:08;;;;;;;;;;;;;;;;;;6243554;23;19913;-68
2022/12/12 13:38:34;;;;;;;;;;;;;;;;;;6244021;23;20387;-68
2022/12/12 13:41:00;;;;;;;;;;;;;;;;;;6243432;23;19907;-67
2022/12/12 13:43:26;;;;;;;;;;;;;;;;;;6244050;23;20006;-68
2022/12/12 13:45:52;;;;;;;;;;;;;;;;;;6243175;23;20333;-67
2022/12/12 13:48:18;;;;;;;;;;;;;;;;;;6243879;22;20228;-67
2022/12/12 13:50:44;;;;;;;;;;;;;;;;;;6243315;23;19908;-67
2022/12/12 13:53:10;;;;;;;;;;;;;;;;;;6243575;22;19927;-68
2022/12/12 13:55:36;;;;;;;;;;;;;;;;;;6243863;23;19904;-68
2022/12/12 13:58:04;;;;;;;;;;;;;;;;;;6243576;23;19925;-67
2022/12/12 14:00:30;;;;;;;;;;;;;;;;;;6243961;22;20219;-67
2022/12/12 14:02:56;;;;;;;;;;;;;;;;;;6242507;23;20367;-68
2022/12/12 14:05:22;;;;;;;;;;;;;;;;;;6243725;23;19903;-68
2022/12/12 14:07:48;;;;;;;;;;;;;;;;;;6242910;23;19903;-68
2022/12/12 14:10:13;;;;;;;;;;;;;;;;;;6242657;23;20014;-68
2022/12/12 14:12:39;;;;;;;;;;;;;;;;;;6242117;22;19907;-68
2022/12/12 14:15:05;;;;;;;;;;;;;;;;;;6242338;23;20351;-68
2022/12/12 14:17:31;;;;;;;;;;;;;;;;;;6242576;23;19904;-68
2022/12/12 14:19:57;;;;;;;;;;;;;;;;;;6242917;22;20117;-68
2022/12/12 14:22:23;;;;;;;;;;;;;;;;;;6216678;23;19904;-68
2022/12/12 14:24:49;;;;;;;;;;;;;;;;;;6242015;23;19933;-68
2022/12/12 14:27:15;;;;;;;;;;;;;;;;;;6242373;23;19919;-68
2022/12/12 14:29:41;;;;;;;;;;;;;;;;;;6242809;23;20272;-68
2022/12/12 14:32:07;;;;;;;;;;;;;;;;;;6241660;23;20237;-70
2022/12/12 14:34:32;;;;;;;;;;;;;;;;;;6243170;23;19942;-69
2022/12/12 14:36:58;;;;;;;;;;;;;;;;;;6242399;23;19908;-69
2022/12/12 14:39:24;;;;;;;;;;;;;;;;;;6243404;23;19935;-69
2022/12/12 14:41:50;;;;;;;;;;;;;;;;;;6242942;23;19904;-69
2022/12/12 14:44:16;;;;;;;;;;;;;;;;;;6243136;22;19907;-68
2022/12/12 14:46:42;;;;;;;;;;;;;;;;;;6241774;23;20328;-69
2022/12/12 14:49:08;;;;;;;;;;;;;;;;;;6243245;23;19959;-68
2022/12/12 14:51:34;;;;;;;;;;;;;;;;;;6243303;23;19914;-68
2022/12/12 14:53:59;;;;;;;;;;;;;;;;;;6243088;23;19930;-68
2022/12/12 14:56:25;;;;;;;;;;;;;;;;;;6243172;22;19903;-69
2022/12/12 14:58:51;;;;;;;;;;;;;;;;;;6242444;23;19904;-68
2022/12/12 15:01:17;;;;;;;;;;;;;;;;;;6238930;22;19907;-68
2022/12/12 15:03:43;;;;;;;;;;;;;;;;;;6242471;23;19914;-68
2022/12/12 15:06:09;;;;;;;;;;;;;;;;;;6242787;23;19939;-68
2022/12/12 15:08:35;;;;;;;;;;;;;;;;;;6242820;23;20369;-68
2022/12/12 15:11:01;;;;;;;;;;;;;;;;;;6214132;23;19904;-68
2022/12/12 15:13:27;;;;;;;;;;;;;;;;;;6240633;23;19915;-68
2022/12/12 15:15:52;;;;;;;;;;;;;;;;;;6242036;23;20205;-69
2022/12/12 15:18:18;;;;;;;;;;;;;;;;;;6242842;23;19904;-68
2022/12/12 15:20:44;;;;;;;;;;;;;;;;;;6241116;22;19912;-68
2022/12/12 15:23:10;;;;;;;;;;;;;;;;;;6240850;22;19990;-68
2022/12/12 15:25:36;;;;;;;;;;;;;;;;;;6242758;23;19911;-68
2022/12/12 15:28:02;;;;;;;;;;;;;;;;;;6241509;23;19903;-68
2022/12/12 15:30:28;;;;;;;;;;;;;;;;;;6240452;23;19966;-68
2022/12/12 15:32:53;;;;;;;;;;;;;;;;;;6242561;23;19904;-69
2022/12/12 15:35:19;;;;;;;;;;;;;;;;;;6214572;23;20321;-68
2022/12/12 15:37:45;;;;;;;;;;;;;;;;;;6242660;23;20316;-69
2022/12/12 15:40:11;;;;;;;;;;;;;;;;;;6241842;23;20268;-69
2022/12/12 15:42:37;;;;;;;;;;;;;;;;;;6243477;22;19978;-69
2022/12/12 15:45:03;;;;;;;;;;;;;;;;;;6241152;23;20331;-68
2022/12/12 15:47:29;;;;;;;;;;;;;;;;;;6242618;23;19912;-68
2022/12/12 15:49:55;;;;;;;;;;;;;;;;;;6241296;23;20313;-68
2022/12/12 15:52:21;;;;;;;;;;;;;;;;;;6242588;23;19911;-68
2022/12/12 15:54:47;;;;;;;;;;;;;;;;;;6243821;23;19903;-69
2022/12/12 15:57:13;;;;;;;;;;;;;;;;;;6243370;23;19925;-68
2022/12/12 15:59:39;;;;;;;;;;;;;;;;;;6243859;23;19903;-68
2022/12/12 16:02:05;;;;;;;;;;;;;;;;;;6244085;22;19930;-69
2022/12/12 16:04:31;;;;;;;;;;;;;;;;;;6244895;23;19904;-69
2022/12/12 16:06:57;;;;;;;;;;;;;;;;;;6242049;23;19973;-68
2022/12/12 16:09:22;;;;;;;;;;;;;;;;;;6243448;23;20228;-68
2022/12/12 16:11:48;;;;;;;;;;;;;;;;;;6244221;22;19907;-70
2022/12/12 16:14:14;;;;;;;;;;;;;;;;;;6243934;22;20007;-69
2022/12/12 16:16:40;;;;;;;;;;;;;;;;;;6244488;23;19903;-68
2022/12/12 16:19:06;;;;;;;;;;;;;;;;;;6244300;23;19911;-69
2022/12/12 16:21:35;;;;;;;;;;;;;;;;;;6244295;22;19907;-69
2022/12/12 16:24:01;;;;;;;;;;;;;;;;;;6244545;23;19979;-69
2022/12/12 16:26:27;;;;;;;;;;;;;;;;;;6244607;23;19951;-68
2022/12/12 16:28:52;;;;;;;;;;;;;;;;;;6243250;22;19907;-68
2022/12/12 16:31:18;;;;;;;;;;;;;;;;;;6244638;23;19911;-68
2022/12/12 16:33:45;;;;;;;;;;;;;;;;;;6244117;23;19907;-68
2022/12/12 16:36:11;;;;;;;;;;;;;;;;;;6244264;23;20214;-70
2022/12/12 16:38:39;;;;;;;;;;;;;;;;;;6244561;22;19903;-68
2022/12/12 16:41:05;;;;;;;;;;;;;;;;;;6244286;23;20702;-69
2022/12/12 16:43:30;;;;;;;;;;;;;;;;;;6242719;22;19904;-69
2022/12/12 16:45:56;;;;;;;;;;;;;;;;;;6243045;23;19907;-69
2022/12/12 16:48:22;;;;;;;;;;;;;;;;;;6217092;23;19908;-69
2022/12/12 16:50:48;;;;;;;;;;;;;;;;;;6243371;23;19911;-69